sensor_id;sensor_type;location;lat;lon;timestamp;pressure;altitude;pressure_sealevel;temperature;humidity
7333;BME280;3707;43.618;25.342;2023-03-05T00:01:53;99758.59;;;8.24;100.00
7333;BME280;3707;43.618;25.342;2023-03-05T00:04:20;99754.34;;;8.26;100.00
7333;BME280;3707;43.618;25.342;2023-03-05T00:06:48;99760.47;;;8.31;100.00
7333;BME280;3707;43.618;25.342;2023-03-05T00:09:15;99738.75;;;8.20;100.00
7333;BME280;3707;43.618;25.342;2023-03-05T00:11:42;99744.94;;;8.28;100.00
7333;BME280;3707;43.618;25.342;2023-03-05T00:14:10;99760.66;;;8.40;100.00
7333;BME280;3707;43.618;25.342;2023-03-05T00:16:37;99764.88;;;8.35;100.00
7333;BME280;3707;43.618;25.342;2023-03-05T00:19:04;99742.41;;;8.31;100.00
7333;BME280;3707;43.618;25.342;2023-03-05T00:21:33;99738.16;;;8.35;100.00
7333;BME280;3707;43.618;25.342;2023-03-05T00:24:01;99745.94;;;8.36;100.00
7333;BME280;3707;43.618;25.342;2023-03-05T00:26:29;99748.44;;;8.30;100.00
7333;BME280;3707;43.618;25.342;2023-03-05T00:28:58;99716.97;;;8.06;100.00
7333;BME280;3707;43.618;25.342;2023-03-05T00:31:28;99725.69;;;8.13;100.00
7333;BME280;3707;43.618;25.342;2023-03-05T00:33:58;99737.81;;;8.17;100.00
7333;BME280;3707;43.618;25.342;2023-03-05T00:36:25;99712.56;;;8.02;100.00
7333;BME280;3707;43.618;25.342;2023-03-05T00:38:52;99725.69;;;8.13;100.00
7333;BME280;3707;43.618;25.342;2023-03-05T00:41:19;99725.69;;;8.13;100.00
7333;BME280;3707;43.618;25.342;2023-03-05T00:43:47;99721.25;;;8.07;100.00
7333;BME280;3707;43.618;25.342;2023-03-05T00:46:14;99720.44;;;8.08;100.00
7333;BME280;3707;43.618;25.342;2023-03-05T00:48:42;99708.50;;;8.15;100.00
7333;BME280;3707;43.618;25.342;2023-03-05T00:51:09;99659.41;;;7.67;100.00
7333;BME280;3707;43.618;25.342;2023-03-05T00:53:36;99721.94;;;7.97;100.00
7333;BME280;3707;43.618;25.342;2023-03-05T00:56:03;99708.88;;;7.89;100.00
7333;BME280;3707;43.618;25.342;2023-03-05T00:58:30;99702.63;;;7.78;100.00
7333;BME280;3707;43.618;25.342;2023-03-05T01:00:57;99708.84;;;7.88;100.00
7333;BME280;3707;43.618;25.342;2023-03-05T01:03:26;99630.34;;;7.33;100.00
7333;BME280;3707;43.618;25.342;2023-03-05T01:05:54;99695.78;;;7.80;100.00
7333;BME280;3707;43.618;25.342;2023-03-05T01:08:21;99667.88;;;7.61;100.00
7333;BME280;3707;43.618;25.342;2023-03-05T01:10:48;99695.59;;;7.70;100.00
7333;BME280;3707;43.618;25.342;2023-03-05T01:13:15;99658.25;;;7.53;100.00
7333;BME280;3707;43.618;25.342;2023-03-05T01:15:42;99692.22;;;7.74;100.00
7333;BME280;3707;43.618;25.342;2023-03-05T01:18:09;99672.38;;;7.70;100.00
7333;BME280;3707;43.618;25.342;2023-03-05T01:20:35;99692.34;;;7.81;100.00
7333;BME280;3707;43.618;25.342;2023-03-05T01:23:04;99681.19;;;7.81;100.00
7333;BME280;3707;43.618;25.342;2023-03-05T01:25:31;99674.22;;;7.77;100.00
7333;BME280;3707;43.618;25.342;2023-03-05T01:27:57;99694.16;;;7.85;100.00
7333;BME280;3707;43.618;25.342;2023-03-05T01:30:24;99701.00;;;7.83;100.00
7333;BME280;3707;43.618;25.342;2023-03-05T01:32:51;99687.28;;;7.84;100.00
7333;BME280;3707;43.618;25.342;2023-03-05T01:35:20;99694.19;;;7.87;100.00
7333;BME280;3707;43.618;25.342;2023-03-05T01:37:47;99674.81;;;7.64;100.00
7333;BME280;3707;43.618;25.342;2023-03-05T01:40:18;99684.66;;;7.83;100.00
7333;BME280;3707;43.618;25.342;2023-03-05T01:42:46;99688.00;;;7.79;100.00
7333;BME280;3707;43.618;25.342;2023-03-05T01:45:15;99670.66;;;7.72;100.00
7333;BME280;3707;43.618;25.342;2023-03-05T01:47:43;99662.72;;;7.61;100.00
7333;BME280;3707;43.618;25.342;2023-03-05T01:50:13;99660.13;;;7.60;100.00
7333;BME280;3707;43.618;25.342;2023-03-05T01:52:45;99695.78;;;7.80;100.00
7333;BME280;3707;43.618;25.342;2023-03-05T01:55:17;99687.91;;;7.73;100.00
7333;BME280;3707;43.618;25.342;2023-03-05T01:57:47;99679.31;;;7.74;100.00
7333;BME280;3707;43.618;25.342;2023-03-05T02:00:19;99693.88;;;7.72;100.00
7333;BME280;3707;43.618;25.342;2023-03-05T02:02:49;99679.03;;;7.60;100.00
7333;BME280;3707;43.618;25.342;2023-03-05T02:05:19;99696.47;;;7.72;100.00
7333;BME280;3707;43.618;25.342;2023-03-05T02:07:51;99686.03;;;7.66;100.00
7333;BME280;3707;43.618;25.342;2023-03-05T02:10:22;99647.69;;;7.40;100.00
7333;BME280;3707;43.618;25.342;2023-03-05T02:12:51;99677.22;;;7.55;100.00
7333;BME280;3707;43.618;25.342;2023-03-05T02:15:18;99691.00;;;7.57;100.00
7333;BME280;3707;43.618;25.342;2023-03-05T02:17:46;99646.53;;;7.28;100.00
7333;BME280;3707;43.618;25.342;2023-03-05T02:20:15;99690.94;;;7.54;100.00
7333;BME280;3707;43.618;25.342;2023-03-05T02:22:45;99693.63;;;7.58;100.00
7333;BME280;3707;43.618;25.342;2023-03-05T02:25:14;99695.25;;;7.55;100.00
7333;BME280;3707;43.618;25.342;2023-03-05T02:27:44;99696.97;;;7.54;100.00
7333;BME280;3707;43.618;25.342;2023-03-05T02:30:12;99699.38;;;7.46;100.00
7333;BME280;3707;43.618;25.342;2023-03-05T02:32:39;99703.59;;;7.41;100.00
7333;BME280;3707;43.618;25.342;2023-03-05T02:35:06;99693.84;;;7.28;100.00
7333;BME280;3707;43.618;25.342;2023-03-05T02:37:33;99652.06;;;7.04;100.00
7333;BME280;3707;43.618;25.342;2023-03-05T02:40:02;99706.03;;;7.35;100.00
7333;BME280;3707;43.618;25.342;2023-03-05T02:42:29;99712.66;;;7.24;100.00
7333;BME280;3707;43.618;25.342;2023-03-05T02:44:58;99707.59;;;7.27;100.00
7333;BME280;3707;43.618;25.342;2023-03-05T02:47:25;99713.47;;;7.22;100.00
7333;BME280;3707;43.618;25.342;2023-03-05T02:49:52;99715.09;;;7.18;100.00
7333;BME280;3707;43.618;25.342;2023-03-05T02:52:19;99715.28;;;7.26;100.00
7333;BME280;3707;43.618;25.342;2023-03-05T02:54:48;99716.03;;;7.20;100.00
7333;BME280;3707;43.618;25.342;2023-03-05T02:57:16;99709.13;;;7.21;100.00
7333;BME280;3707;43.618;25.342;2023-03-05T02:59:43;99709.94;;;7.18;100.00
7333;BME280;3707;43.618;25.342;2023-03-05T03:02:10;99705.47;;;7.11;100.00
7333;BME280;3707;43.618;25.342;2023-03-05T03:04:37;99707.22;;;7.12;100.00
7333;BME280;3707;43.618;25.342;2023-03-05T03:07:04;99691.34;;;6.94;100.00
7333;BME280;3707;43.618;25.342;2023-03-05T03:09:32;99677.63;;;6.95;100.00
7333;BME280;3707;43.618;25.342;2023-03-05T03:12:00;99713.97;;;7.07;100.00
7333;BME280;3707;43.618;25.342;2023-03-05T03:14:30;99685.38;;;6.95;100.00
7333;BME280;3707;43.618;25.342;2023-03-05T03:16:57;99701.03;;;7.04;100.00
7333;BME280;3707;43.618;25.342;2023-03-05T03:19:24;99710.50;;;7.05;100.00
7333;BME280;3707;43.618;25.342;2023-03-05T03:21:50;99707.88;;;7.02;100.00
7333;BME280;3707;43.618;25.342;2023-03-05T03:24:19;99696.69;;;7.03;100.00
7333;BME280;3707;43.618;25.342;2023-03-05T03:26:46;99696.78;;;7.06;100.00
7333;BME280;3707;43.618;25.342;2023-03-05T03:29:14;99679.44;;;6.99;100.00
7333;BME280;3707;43.618;25.342;2023-03-05T03:31:43;99694.47;;;7.17;100.00
7333;BME280;3707;43.618;25.342;2023-03-05T03:34:11;99692.66;;;7.13;100.00
7333;BME280;3707;43.618;25.342;2023-03-05T03:36:39;99694.41;;;7.15;100.00
7333;BME280;3707;43.618;25.342;2023-03-05T03:39:06;99675.13;;;6.99;100.00
7333;BME280;3707;43.618;25.342;2023-03-05T03:41:34;99696.78;;;7.06;100.00
7333;BME280;3707;43.618;25.342;2023-03-05T03:44:01;99689.16;;;7.11;100.00
7333;BME280;3707;43.618;25.342;2023-03-05T03:46:29;99676.19;;;7.06;100.00
7333;BME280;3707;43.618;25.342;2023-03-05T03:48:57;99698.81;;;7.19;100.00
7333;BME280;3707;43.618;25.342;2023-03-05T03:51:24;99671.78;;;7.02;100.00
7333;BME280;3707;43.618;25.342;2023-03-05T03:53:51;99696.16;;;7.16;100.00
7333;BME280;3707;43.618;25.342;2023-03-05T03:56:18;99677.88;;;7.07;100.00
7333;BME280;3707;43.618;25.342;2023-03-05T03:58:44;99662.19;;;6.95;100.00
7333;BME280;3707;43.618;25.342;2023-03-05T04:01:11;99692.66;;;7.14;100.00
7333;BME280;3707;43.618;25.342;2023-03-05T04:03:38;99659.63;;;6.96;100.00
7333;BME280;3707;43.618;25.342;2023-03-05T04:06:06;99671.03;;;7.06;100.00
7333;BME280;3707;43.618;25.342;2023-03-05T04:08:33;99706.41;;;7.15;100.00
7333;BME280;3707;43.618;25.342;2023-03-05T04:11:01;99696.75;;;7.05;100.00
7333;BME280;3707;43.618;25.342;2023-03-05T04:13:28;99697.50;;;7.01;100.00
7333;BME280;3707;43.618;25.342;2023-03-05T04:15:55;99690.69;;;7.03;100.00
7333;BME280;3707;43.618;25.342;2023-03-05T04:18:22;99695.03;;;7.05;100.00
7333;BME280;3707;43.618;25.342;2023-03-05T04:20:49;99699.25;;;7.02;100.00
7333;BME280;3707;43.618;25.342;2023-03-05T04:23:17;99696.78;;;7.06;100.00
7333;BME280;3707;43.618;25.342;2023-03-05T04:25:44;99695.75;;;6.98;100.00
7333;BME280;3707;43.618;25.342;2023-03-05T04:28:11;99691.53;;;7.03;100.00
7333;BME280;3707;43.618;25.342;2023-03-05T04:30:37;99674.88;;;6.87;100.00
7333;BME280;3707;43.618;25.342;2023-03-05T04:33:04;99698.38;;;7.01;100.00
7333;BME280;3707;43.618;25.342;2023-03-05T04:35:31;99688.06;;;7.01;100.00
7333;BME280;3707;43.618;25.342;2023-03-05T04:37:58;99690.66;;;7.01;100.00
7333;BME280;3707;43.618;25.342;2023-03-05T04:40:26;99691.69;;;7.09;100.00
7333;BME280;3707;43.618;25.342;2023-03-05T04:42:53;99690.69;;;7.03;100.00
7333;BME280;3707;43.618;25.342;2023-03-05T04:45:19;99694.22;;;7.06;100.00
7333;BME280;3707;43.618;25.342;2023-03-05T04:47:46;99693.34;;;7.06;100.00
7333;BME280;3707;43.618;25.342;2023-03-05T04:50:13;99674.19;;;6.96;100.00
7333;BME280;3707;43.618;25.342;2023-03-05T04:52:42;99675.94;;;6.95;100.00
7333;BME280;3707;43.618;25.342;2023-03-05T04:55:10;99704.78;;;7.17;100.00
7333;BME280;3707;43.618;25.342;2023-03-05T04:57:38;99694.34;;;7.14;100.00
7333;BME280;3707;43.618;25.342;2023-03-05T05:00:08;99704.72;;;7.15;100.00
7333;BME280;3707;43.618;25.342;2023-03-05T05:02:38;99705.63;;;7.17;100.00
7333;BME280;3707;43.618;25.342;2023-03-05T05:05:05;99703.91;;;7.18;100.00
7333;BME280;3707;43.618;25.342;2023-03-05T05:07:32;99714.16;;;7.13;100.00
7333;BME280;3707;43.618;25.342;2023-03-05T05:09:59;99697.06;;;7.18;100.00
7333;BME280;3707;43.618;25.342;2023-03-05T05:12:27;99717.75;;;7.21;100.00
7333;BME280;3707;43.618;25.342;2023-03-05T05:14:56;99704.91;;;7.24;100.00
7333;BME280;3707;43.618;25.342;2023-03-05T05:17:23;99713.44;;;7.20;100.00
7333;BME280;3707;43.618;25.342;2023-03-05T05:19:50;99724.72;;;7.25;100.00
7333;BME280;3707;43.618;25.342;2023-03-05T05:22:17;99726.59;;;7.32;100.00
7333;BME280;3707;43.618;25.342;2023-03-05T05:24:44;99711.06;;;7.29;100.00
7333;BME280;3707;43.618;25.342;2023-03-05T05:27:11;99726.94;;;7.47;100.00
7333;BME280;3707;43.618;25.342;2023-03-05T05:29:38;99726.94;;;7.47;100.00
7333;BME280;3707;43.618;25.342;2023-03-05T05:32:06;99716.84;;;7.58;100.00
7333;BME280;3707;43.618;25.342;2023-03-05T05:34:34;99739.25;;;7.61;100.00
7333;BME280;3707;43.618;25.342;2023-03-05T05:37:00;99728.13;;;7.63;100.00
7333;BME280;3707;43.618;25.342;2023-03-05T05:39:27;99741.16;;;7.71;100.00
7333;BME280;3707;43.618;25.342;2023-03-05T05:41:55;99745.72;;;7.82;100.00
7333;BME280;3707;43.618;25.342;2023-03-05T05:44:21;99741.44;;;7.83;100.00
7333;BME280;3707;43.618;25.342;2023-03-05T05:46:48;99731.09;;;7.83;100.00
7333;BME280;3707;43.618;25.342;2023-03-05T05:49:16;99722.03;;;8.02;100.00
7333;BME280;3707;43.618;25.342;2023-03-05T05:51:43;99742.69;;;8.02;100.00
7333;BME280;3707;43.618;25.342;2023-03-05T05:54:11;99743.00;;;8.18;100.00
7333;BME280;3707;43.618;25.342;2023-03-05T05:56:38;99711.59;;;7.97;100.00
7333;BME280;3707;43.618;25.342;2023-03-05T05:59:05;99719.19;;;7.88;100.00
7333;BME280;3707;43.618;25.342;2023-03-05T06:01:33;99740.25;;;8.09;100.00
7333;BME280;3707;43.618;25.342;2023-03-05T06:04:00;99733.22;;;8.04;100.00
7333;BME280;3707;43.618;25.342;2023-03-05T06:06:29;99748.19;;;8.21;100.00
7333;BME280;3707;43.618;25.342;2023-03-05T06:08:56;99750.88;;;8.26;99.59
7333;BME280;3707;43.618;25.342;2023-03-05T06:11:23;99741.38;;;8.25;99.93
7333;BME280;3707;43.618;25.342;2023-03-05T06:13:50;99735.44;;;8.27;98.06
7333;BME280;3707;43.618;25.342;2023-03-05T06:16:18;99741.91;;;8.51;100.00
7333;BME280;3707;43.618;25.342;2023-03-05T06:18:46;99720.03;;;8.30;96.92
7333;BME280;3707;43.618;25.342;2023-03-05T06:21:14;99739.31;;;8.51;96.27
7333;BME280;3707;43.618;25.342;2023-03-05T06:23:44;99754.00;;;8.53;97.22
7333;BME280;3707;43.618;25.342;2023-03-05T06:26:13;99760.03;;;8.54;96.99
7333;BME280;3707;43.618;25.342;2023-03-05T06:28:40;99755.69;;;8.53;96.36
7333;BME280;3707;43.618;25.342;2023-03-05T06:31:08;99758.28;;;8.51;95.84
7333;BME280;3707;43.618;25.342;2023-03-05T06:33:36;99758.28;;;8.51;95.85
7333;BME280;3707;43.618;25.342;2023-03-05T06:36:03;99742.88;;;8.57;95.11
7333;BME280;3707;43.618;25.342;2023-03-05T06:38:30;99773.38;;;8.76;95.75
7333;BME280;3707;43.618;25.342;2023-03-05T06:41:01;99739.63;;;8.69;94.31
7333;BME280;3707;43.618;25.342;2023-03-05T06:43:30;99770.97;;;8.87;95.13
7333;BME280;3707;43.618;25.342;2023-03-05T06:46:02;99771.00;;;8.90;93.78
7333;BME280;3707;43.618;25.342;2023-03-05T06:48:29;99758.69;;;8.74;95.20
7333;BME280;3707;43.618;25.342;2023-03-05T06:50:56;99750.94;;;8.75;93.61
7333;BME280;3707;43.618;25.342;2023-03-05T06:53:22;99769.91;;;8.76;93.76
7333;BME280;3707;43.618;25.342;2023-03-05T06:55:50;99778.84;;;8.96;93.18
7333;BME280;3707;43.618;25.342;2023-03-05T06:58:18;99769.31;;;8.92;93.65
7333;BME280;3707;43.618;25.342;2023-03-05T07:00:45;99778.03;;;8.97;93.21
7333;BME280;3707;43.618;25.342;2023-03-05T07:03:12;99777.22;;;9.03;92.68
7333;BME280;3707;43.618;25.342;2023-03-05T07:05:40;99778.31;;;9.15;93.06
7333;BME280;3707;43.618;25.342;2023-03-05T07:08:07;99743.38;;;8.86;92.97
7333;BME280;3707;43.618;25.342;2023-03-05T07:10:37;99781.41;;;8.93;94.22
7333;BME280;3707;43.618;25.342;2023-03-05T07:13:04;99776.41;;;9.02;94.64
7333;BME280;3707;43.618;25.342;2023-03-05T07:15:33;99775.47;;;8.99;94.87
7333;BME280;3707;43.618;25.342;2023-03-05T07:18:03;99782.50;;;9.07;95.91
7333;BME280;3707;43.618;25.342;2023-03-05T07:20:30;99776.28;;;8.96;96.93
7333;BME280;3707;43.618;25.342;2023-03-05T07:22:57;99784.44;;;9.20;95.27
7333;BME280;3707;43.618;25.342;2023-03-05T07:25:23;99784.50;;;9.23;96.74
7333;BME280;3707;43.618;25.342;2023-03-05T07:27:50;99782.66;;;9.16;95.80
7333;BME280;3707;43.618;25.342;2023-03-05T07:30:18;99782.03;;;9.32;97.20
7333;BME280;3707;43.618;25.342;2023-03-05T07:32:46;99781.34;;;9.44;98.46
7333;BME280;3707;43.618;25.342;2023-03-05T07:35:13;99756.19;;;9.35;97.02
7333;BME280;3707;43.618;25.342;2023-03-05T07:37:40;99780.38;;;9.37;99.84
7333;BME280;3707;43.618;25.342;2023-03-05T07:40:07;99766.59;;;9.38;97.10
7333;BME280;3707;43.618;25.342;2023-03-05T07:42:35;99771.00;;;9.45;96.95
7333;BME280;3707;43.618;25.342;2023-03-05T07:45:02;99753.72;;;9.43;96.60
7333;BME280;3707;43.618;25.342;2023-03-05T07:47:28;99750.44;;;9.55;97.21
7333;BME280;3707;43.618;25.342;2023-03-05T07:49:57;99767.19;;;9.82;95.34
7333;BME280;3707;43.618;25.342;2023-03-05T07:52:24;99768.16;;;9.87;94.53
7333;BME280;3707;43.618;25.342;2023-03-05T07:54:51;99760.50;;;9.98;93.67
7333;BME280;3707;43.618;25.342;2023-03-05T07:57:17;99765.69;;;9.98;93.28
7333;BME280;3707;43.618;25.342;2023-03-05T07:59:44;99751.03;;;10.00;94.35
7333;BME280;3707;43.618;25.342;2023-03-05T08:02:12;99750.28;;;10.09;92.62
7333;BME280;3707;43.618;25.342;2023-03-05T08:04:39;99751.19;;;10.12;92.48
7333;BME280;3707;43.618;25.342;2023-03-05T08:07:08;99754.81;;;10.26;91.69
7333;BME280;3707;43.618;25.342;2023-03-05T08:09:35;99755.72;;;10.31;93.23
7333;BME280;3707;43.618;25.342;2023-03-05T08:12:02;99754.94;;;10.37;90.15
7333;BME280;3707;43.618;25.342;2023-03-05T08:14:29;99757.72;;;10.60;88.97
7333;BME280;3707;43.618;25.342;2023-03-05T08:16:56;99749.97;;;10.58;91.28
7333;BME280;3707;43.618;25.342;2023-03-05T08:19:22;99758.50;;;10.50;87.53
7333;BME280;3707;43.618;25.342;2023-03-05T08:21:49;99710.50;;;10.05;85.96
7333;BME280;3707;43.618;25.342;2023-03-05T08:24:17;99753.88;;;10.21;87.06
7333;BME280;3707;43.618;25.342;2023-03-05T08:26:44;99757.41;;;10.26;87.55
7333;BME280;3707;43.618;25.342;2023-03-05T08:29:11;99752.13;;;10.17;86.24
7333;BME280;3707;43.618;25.342;2023-03-05T08:31:38;99719.94;;;9.99;85.87
7333;BME280;3707;43.618;25.342;2023-03-05T08:34:05;99747.84;;;10.24;93.73
7333;BME280;3707;43.618;25.342;2023-03-05T08:36:32;99722.66;;;10.09;87.68
7333;BME280;3707;43.618;25.342;2023-03-05T08:38:59;99705.16;;;9.90;85.40
7333;BME280;3707;43.618;25.342;2023-03-05T08:41:27;99732.94;;;10.06;85.49
7333;BME280;3707;43.618;25.342;2023-03-05T08:43:54;99738.91;;;9.99;85.26
7333;BME280;3707;43.618;25.342;2023-03-05T08:46:21;99724.50;;;10.16;86.15
7333;BME280;3707;43.618;25.342;2023-03-05T08:48:48;99716.78;;;10.24;85.59
7333;BME280;3707;43.618;25.342;2023-03-05T08:51:17;99709.91;;;10.27;87.15
7333;BME280;3707;43.618;25.342;2023-03-05T08:53:45;99724.75;;;10.40;85.63
7333;BME280;3707;43.618;25.342;2023-03-05T08:56:12;99704.78;;;10.32;85.05
7333;BME280;3707;43.618;25.342;2023-03-05T08:58:41;99719.78;;;10.68;84.93
7333;BME280;3707;43.618;25.342;2023-03-05T09:01:07;99724.16;;;10.72;82.50
7333;BME280;3707;43.618;25.342;2023-03-05T09:03:34;99698.19;;;10.70;80.38
7333;BME280;3707;43.618;25.342;2023-03-05T09:06:03;99707.72;;;10.70;80.52
7333;BME280;3707;43.618;25.342;2023-03-05T09:08:30;99716.44;;;10.81;80.43
7333;BME280;3707;43.618;25.342;2023-03-05T09:10:57;99697.25;;;10.61;78.98
7333;BME280;3707;43.618;25.342;2023-03-05T09:13:24;99714.69;;;10.75;80.95
7333;BME280;3707;43.618;25.342;2023-03-05T09:15:56;99696.44;;;10.65;81.13
7333;BME280;3707;43.618;25.342;2023-03-05T09:18:23;99706.03;;;10.78;81.02
7333;BME280;3707;43.618;25.342;2023-03-05T09:20:50;99713.94;;;10.90;81.99
7333;BME280;3707;43.618;25.342;2023-03-05T09:23:18;99707.91;;;10.94;85.84
7333;BME280;3707;43.618;25.342;2023-03-05T09:25:44;99713.97;;;10.96;80.39
7333;BME280;3707;43.618;25.342;2023-03-05T09:28:11;99696.81;;;11.12;77.98
7333;BME280;3707;43.618;25.342;2023-03-05T09:30:38;99699.44;;;11.19;79.09
7333;BME280;3707;43.618;25.342;2023-03-05T09:33:06;99708.06;;;11.15;78.06
7333;BME280;3707;43.618;25.342;2023-03-05T09:35:34;99686.47;;;11.24;79.32
7333;BME280;3707;43.618;25.342;2023-03-05T09:38:02;99674.31;;;11.09;78.41
7333;BME280;3707;43.618;25.342;2023-03-05T09:40:32;99688.97;;;11.04;78.72
7333;BME280;3707;43.618;25.342;2023-03-05T09:43:10;99668.28;;;11.16;78.64
7333;BME280;3707;43.618;25.342;2023-03-05T09:45:49;99669.13;;;11.09;79.37
7333;BME280;3707;43.618;25.342;2023-03-05T09:48:31;99671.88;;;11.42;79.39
7333;BME280;3707;43.618;25.342;2023-03-05T09:51:04;99637.19;;;11.22;77.95
7333;BME280;3707;43.618;25.342;2023-03-05T09:53:38;99651.09;;;11.42;80.52
7333;BME280;3707;43.618;25.342;2023-03-05T09:56:10;99655.56;;;11.66;79.25
7333;BME280;3707;43.618;25.342;2023-03-05T09:58:39;99658.97;;;11.52;76.15
7333;BME280;3707;43.618;25.342;2023-03-05T10:01:09;99648.63;;;11.68;77.79
7333;BME280;3707;43.618;25.342;2023-03-05T10:03:48;99628.78;;;11.78;76.29
7333;BME280;3707;43.618;25.342;2023-03-05T10:06:21;99644.41;;;11.84;78.88
7333;BME280;3707;43.618;25.342;2023-03-05T10:08:53;99636.50;;;11.67;72.01
7333;BME280;3707;43.618;25.342;2023-03-05T10:11:45;99637.47;;;11.86;71.13
7333;BME280;3707;43.618;25.342;2023-03-05T10:14:17;99635.66;;;11.70;77.89
7333;BME280;3707;43.618;25.342;2023-03-05T10:16:59;99611.41;;;11.65;72.19
7333;BME280;3707;43.618;25.342;2023-03-05T10:19:46;99611.47;;;11.86;72.87
7333;BME280;3707;43.618;25.342;2023-03-05T10:22:18;99616.69;;;11.93;70.63
7333;BME280;3707;43.618;25.342;2023-03-05T10:24:55;99612.34;;;11.86;70.49
7333;BME280;3707;43.618;25.342;2023-03-05T10:27:35;99612.38;;;11.97;70.81
7333;BME280;3707;43.618;25.342;2023-03-05T10:30:16;99603.72;;;11.93;72.19
7333;BME280;3707;43.618;25.342;2023-03-05T10:32:50;99601.97;;;11.92;69.69
7333;BME280;3707;43.618;25.342;2023-03-05T10:35:34;99592.47;;;12.07;70.46
7333;BME280;3707;43.618;25.342;2023-03-05T10:41:15;99590.72;;;12.34;65.88
7333;BME280;3707;43.618;25.342;2023-03-05T10:43:50;99563.03;;;12.18;65.77
7333;BME280;3707;43.618;25.342;2023-03-05T10:46:21;99578.63;;;12.26;67.08
7333;BME280;3707;43.618;25.342;2023-03-05T10:48:51;99589.88;;;12.35;64.91
7333;BME280;3707;43.618;25.342;2023-03-05T10:51:27;99581.22;;;12.14;63.76
7333;BME280;3707;43.618;25.342;2023-03-05T10:54:02;99581.19;;;12.06;58.75
7333;BME280;3707;43.618;25.342;2023-03-05T10:56:30;99576.88;;;12.14;58.78
7333;BME280;3707;43.618;25.342;2023-03-05T10:58:57;99565.63;;;12.24;58.38
7333;BME280;3707;43.618;25.342;2023-03-05T11:01:25;99564.75;;;12.36;58.40
7333;BME280;3707;43.618;25.342;2023-03-05T11:03:56;99574.28;;;12.55;59.19
7333;BME280;3707;43.618;25.342;2023-03-05T11:06:33;99562.97;;;12.79;58.40
7333;BME280;3707;43.618;25.342;2023-03-05T11:09:22;99564.66;;;12.86;58.00
7333;BME280;3707;43.618;25.342;2023-03-05T11:12:08;99549.97;;;12.59;57.54
7333;BME280;3707;43.618;25.342;2023-03-05T11:14:38;99556.06;;;12.51;59.12
7333;BME280;3707;43.618;25.342;2023-03-05T11:17:28;99546.50;;;12.72;62.65
7333;BME280;3707;43.618;25.342;2023-03-05T11:19:55;99539.63;;;12.52;64.04
7333;BME280;3707;43.618;25.342;2023-03-05T11:22:24;99516.19;;;12.56;60.54
7333;BME280;3707;43.618;25.342;2023-03-05T11:25:13;99519.53;;;12.91;59.96
7333;BME280;3707;43.618;25.342;2023-03-05T11:27:48;99521.22;;;13.06;59.09
7333;BME280;3707;43.618;25.342;2023-03-05T11:30:18;99445.00;;;12.83;57.49
7333;BME280;3707;43.618;25.342;2023-03-05T11:32:47;99522.94;;;13.16;56.24
7333;BME280;3707;43.618;25.342;2023-03-05T11:35:31;99521.22;;;13.06;56.59
7333;BME280;3707;43.618;25.342;2023-03-05T11:38:00;99509.97;;;13.00;56.26
7333;BME280;3707;43.618;25.342;2023-03-05T11:40:29;99508.25;;;12.96;56.55
7333;BME280;3707;43.618;25.342;2023-03-05T11:42:58;99426.91;;;12.62;57.37
7333;BME280;3707;43.618;25.342;2023-03-05T11:45:26;99504.78;;;13.00;57.83
7333;BME280;3707;43.618;25.342;2023-03-05T11:47:55;99495.25;;;13.00;57.49
7333;BME280;3707;43.618;25.342;2023-03-05T11:50:26;99504.84;;;12.87;55.46
7333;BME280;3707;43.618;25.342;2023-03-05T11:52:56;99477.03;;;12.97;55.70
7333;BME280;3707;43.618;25.342;2023-03-05T11:55:27;99483.81;;;13.34;54.61
7333;BME280;3707;43.618;25.342;2023-03-05T11:58:02;99475.25;;;13.10;55.25
7333;BME280;3707;43.618;25.342;2023-03-05T12:00:32;99464.00;;;12.99;53.97
7333;BME280;3707;43.618;25.342;2023-03-05T12:03:03;99473.56;;;12.92;54.25
7333;BME280;3707;43.618;25.342;2023-03-05T12:05:30;99475.41;;;12.67;55.00
7333;BME280;3707;43.618;25.342;2023-03-05T12:08:00;99472.72;;;12.90;54.10
7333;BME280;3707;43.618;25.342;2023-03-05T12:10:29;99462.31;;;12.93;54.57
7333;BME280;3707;43.618;25.342;2023-03-05T12:13:00;99393.19;;;12.31;55.16
7333;BME280;3707;43.618;25.342;2023-03-05T12:15:37;99464.94;;;12.81;55.04
7333;BME280;3707;43.618;25.342;2023-03-05T12:18:14;99455.41;;;12.83;55.27
7333;BME280;3707;43.618;25.342;2023-03-05T12:20:47;99465.78;;;12.89;53.64
7333;BME280;3707;43.618;25.342;2023-03-05T12:23:17;99460.59;;;12.90;53.54
7333;BME280;3707;43.618;25.342;2023-03-05T12:25:46;99437.25;;;12.75;57.00
7333;BME280;3707;43.618;25.342;2023-03-05T12:28:15;99448.53;;;12.68;55.54
7333;BME280;3707;43.618;25.342;2023-03-05T12:30:59;99448.50;;;12.79;54.72
7333;BME280;3707;43.618;25.342;2023-03-05T12:33:32;99443.31;;;12.80;55.79
7333;BME280;3707;43.618;25.342;2023-03-05T12:38:59;99445.03;;;12.80;55.88
7333;BME280;3707;43.618;25.342;2023-03-05T12:41:36;99445.00;;;12.83;55.05
7333;BME280;3707;43.618;25.342;2023-03-05T12:44:22;99437.22;;;12.83;55.72
7333;BME280;3707;43.618;25.342;2023-03-05T12:47:21;99434.63;;;12.80;55.40
7333;BME280;3707;43.618;25.342;2023-03-05T12:49:49;99431.03;;;12.99;63.50
7333;BME280;3707;43.618;25.342;2023-03-05T12:52:23;99431.16;;;12.75;56.52
7333;BME280;3707;43.618;25.342;2023-03-05T12:54:59;99437.22;;;12.74;56.46
7333;BME280;3707;43.618;25.342;2023-03-05T12:57:30;99430.25;;;12.85;56.50
7333;BME280;3707;43.618;25.342;2023-03-05T13:00:00;99440.66;;;12.91;56.21
7333;BME280;3707;43.618;25.342;2023-03-05T13:02:34;99435.38;;;12.99;57.32
7333;BME280;3707;43.618;25.342;2023-03-05T13:05:04;99413.78;;;12.86;57.47
7333;BME280;3707;43.618;25.342;2023-03-05T13:07:33;99438.06;;;12.82;56.30
7333;BME280;3707;43.618;25.342;2023-03-05T13:10:01;99443.34;;;12.70;54.83
7333;BME280;3707;43.618;25.342;2023-03-05T13:12:29;99430.41;;;12.50;54.54
7333;BME280;3707;43.618;25.342;2023-03-05T13:14:58;99444.28;;;12.46;54.25
7333;BME280;3707;43.618;25.342;2023-03-05T13:17:32;99443.38;;;12.58;54.07
7333;BME280;3707;43.618;25.342;2023-03-05T13:20:02;99448.53;;;12.70;54.05
7333;BME280;3707;43.618;25.342;2023-03-05T13:22:31;99447.66;;;12.68;54.74
7333;BME280;3707;43.618;25.342;2023-03-05T13:25:19;99443.19;;;13.05;55.50
7333;BME280;3707;43.618;25.342;2023-03-05T13:27:47;99438.81;;;13.14;55.88
7333;BME280;3707;43.618;25.342;2023-03-05T13:30:25;99435.34;;;13.06;55.51